createdAt,value
2018-09-22T00:00:21.293Z,50.70
2018-09-22T00:01:24.435Z,50.70
2018-09-22T00:02:27.583Z,50.70
2018-09-22T00:03:30.632Z,50.70
2018-09-22T00:04:33.701Z,50.70
2018-09-22T00:05:36.748Z,50.70
2018-09-22T00:06:39.988Z,50.70
2018-09-22T00:07:43.024Z,50.90
2018-09-22T00:08:46.073Z,50.80
2018-09-22T00:09:49.172Z,50.80
2018-09-22T00:10:52.306Z,50.70
2018-09-22T00:11:55.893Z,50.70
2018-09-22T00:12:59.285Z,50.70
2018-09-22T00:14:02.416Z,50.60
2018-09-22T00:15:05.775Z,50.60
2018-09-22T00:16:09.752Z,50.60
2018-09-22T00:17:13.529Z,50.60
2018-09-22T00:18:16.885Z,50.60
2018-09-22T00:19:19.992Z,50.60
2018-09-22T00:20:23.626Z,50.60
2018-09-22T00:21:26.927Z,50.70
2018-09-22T00:22:30.191Z,50.70
2018-09-22T00:23:35.915Z,50.70
2018-09-22T00:24:39.219Z,50.70
2018-09-22T00:25:42.470Z,50.60
2018-09-22T00:26:45.595Z,50.70
2018-09-22T00:27:48.679Z,50.70
2018-09-22T00:28:52.021Z,50.70
2018-09-22T00:29:55.348Z,50.60
2018-09-22T00:30:58.512Z,50.60
2018-09-22T00:32:02.105Z,50.70
2018-09-22T00:33:05.952Z,50.60
2018-09-22T00:34:09.265Z,50.60
2018-09-22T00:35:12.714Z,50.60
2018-09-22T00:36:15.932Z,50.60
2018-09-22T00:37:19.117Z,50.60
2018-09-22T00:38:22.349Z,50.60
2018-09-22T00:39:26.845Z,50.60
2018-09-22T00:40:30.891Z,50.60
2018-09-22T00:41:33.965Z,50.60
2018-09-22T00:42:37.220Z,50.50
2018-09-22T00:43:40.977Z,50.60
2018-09-22T00:44:44.079Z,50.60
2018-09-22T00:45:47.325Z,50.50
2018-09-22T00:46:50.342Z,50.60
2018-09-22T00:47:53.326Z,50.50
2018-09-22T00:48:56.528Z,50.50
2018-09-22T00:50:00.882Z,50.50
2018-09-22T00:51:04.484Z,50.50
2018-09-22T00:52:07.564Z,50.50
2018-09-22T00:53:11.785Z,50.50
2018-09-22T00:54:14.873Z,50.80
2018-09-22T00:55:18.032Z,50.50
2018-09-22T00:56:21.036Z,50.50
2018-09-22T00:57:24.123Z,50.40
2018-09-22T00:58:27.132Z,50.40
2018-09-22T00:59:30.244Z,50.40
2018-09-22T01:00:33.364Z,50.40
2018-09-22T01:01:36.495Z,50.30
2018-09-22T01:02:39.768Z,50.30
2018-09-22T01:03:42.846Z,50.30
2018-09-22T01:04:46.110Z,50.40
2018-09-22T01:05:49.147Z,50.40
2018-09-22T01:06:52.396Z,50.40
2018-09-22T01:07:56.496Z,50.40
2018-09-22T01:09:00.960Z,50.30
2018-09-22T01:10:04.396Z,50.40
2018-09-22T01:11:07.706Z,50.30
2018-09-22T01:12:10.889Z,50.40
2018-09-22T01:13:14.226Z,50.40
2018-09-22T01:14:17.314Z,50.30
2018-09-22T01:15:20.800Z,50.30
2018-09-22T01:16:23.933Z,50.30
2018-09-22T01:17:26.936Z,50.30
2018-09-22T01:18:30.179Z,50.30
2018-09-22T01:19:33.337Z,50.30
2018-09-22T01:20:36.507Z,50.30
2018-09-22T01:21:39.816Z,50.30
2018-09-22T01:22:44.867Z,50.30
2018-09-22T01:23:47.956Z,50.30
2018-09-22T01:24:51.088Z,50.20
2018-09-22T01:25:54.267Z,50.20
2018-09-22T01:26:57.632Z,50.20
2018-09-22T01:28:00.744Z,50.20
2018-09-22T01:29:03.843Z,50.20
2018-09-22T01:30:07.057Z,50.20
2018-09-22T01:31:10.315Z,50.20
2018-09-22T01:32:13.728Z,50.10
2018-09-22T01:33:16.948Z,50.20
2018-09-22T01:34:20.079Z,50.10
2018-09-22T01:35:23.565Z,50.10
2018-09-22T01:36:26.675Z,50.10
2018-09-22T01:37:29.764Z,50.00
2018-09-22T01:38:33.110Z,50.00
2018-09-22T01:39:36.277Z,50.00
2018-09-22T01:40:39.665Z,50.10
2018-09-22T01:41:45.505Z,50.10
2018-09-22T01:42:49.588Z,50.00
2018-09-22T01:43:52.817Z,50.00
2018-09-22T01:44:55.923Z,50.00
2018-09-22T01:45:59.408Z,50.00
2018-09-22T01:47:02.668Z,49.80
2018-09-22T01:48:06.309Z,49.90
2018-09-22T01:49:09.718Z,49.90
2018-09-22T01:50:12.983Z,49.90
2018-09-22T01:51:16.471Z,49.90
2018-09-22T01:52:19.646Z,49.90
2018-09-22T01:53:22.720Z,49.90
2018-09-22T01:54:25.906Z,49.90
2018-09-22T01:55:29.039Z,49.90
2018-09-22T01:56:32.225Z,49.90
2018-09-22T01:57:35.499Z,49.90
2018-09-22T01:58:38.636Z,49.90
2018-09-22T01:59:41.848Z,49.90
2018-09-22T02:00:44.983Z,49.90
2018-09-22T02:01:48.125Z,49.80
2018-09-22T02:02:51.220Z,50.00
2018-09-22T02:03:54.432Z,49.80
2018-09-22T02:04:57.565Z,49.80
2018-09-22T02:06:00.691Z,49.80
2018-09-22T02:07:03.981Z,49.80
2018-09-22T02:08:07.444Z,49.70
2018-09-22T02:09:11.219Z,49.70
2018-09-22T02:10:14.475Z,49.80
2018-09-22T02:11:17.965Z,49.70
2018-09-22T02:12:21.176Z,49.70
2018-09-22T02:13:24.300Z,49.70
2018-09-22T02:14:27.527Z,49.70
2018-09-22T02:15:30.788Z,49.70
2018-09-22T02:16:33.935Z,49.70
2018-09-22T02:17:37.289Z,49.70
2018-09-22T02:18:40.428Z,49.60
2018-09-22T02:19:43.704Z,49.60
2018-09-22T02:20:47.025Z,49.60
2018-09-22T02:21:50.104Z,49.60
2018-09-22T02:22:53.469Z,49.60
2018-09-22T02:23:56.868Z,49.60
2018-09-22T02:25:00.236Z,49.60
2018-09-22T02:26:03.400Z,49.60
2018-09-22T02:27:06.928Z,49.60
2018-09-22T02:28:10.329Z,49.60
2018-09-22T02:29:13.667Z,49.50
2018-09-22T02:30:16.997Z,49.50
2018-09-22T02:31:20.214Z,49.50
2018-09-22T02:32:23.672Z,49.40
2018-09-22T02:33:26.902Z,49.50
2018-09-22T02:34:30.347Z,49.40
2018-09-22T02:35:33.655Z,49.50
2018-09-22T02:36:36.674Z,49.50
2018-09-22T02:37:39.972Z,49.50
2018-09-22T02:38:43.386Z,49.40
2018-09-22T02:39:46.493Z,49.40
2018-09-22T02:40:49.685Z,49.40
2018-09-22T02:41:52.762Z,49.40
2018-09-22T02:42:55.899Z,49.40
2018-09-22T02:43:59.109Z,49.40
2018-09-22T02:45:02.374Z,49.40
2018-09-22T02:46:05.859Z,49.30
2018-09-22T02:47:09.097Z,49.30
2018-09-22T02:48:12.150Z,49.30
2018-09-22T02:49:15.439Z,49.30
2018-09-22T02:50:19.725Z,49.30
2018-09-22T02:51:23.075Z,49.30
2018-09-22T02:52:30.811Z,49.30
2018-09-22T02:53:44.558Z,49.30
2018-09-22T02:54:51.613Z,49.20
2018-09-22T02:55:56.865Z,49.20
2018-09-22T02:57:00.150Z,49.20
2018-09-22T02:58:03.332Z,49.20
2018-09-22T02:59:06.863Z,49.20
2018-09-22T03:00:10.068Z,49.20
2018-09-22T03:01:13.360Z,49.20
2018-09-22T03:02:16.729Z,49.20
2018-09-22T03:03:19.948Z,49.20
2018-09-22T03:04:23.244Z,49.20
2018-09-22T03:05:26.705Z,49.20
2018-09-22T03:06:30.011Z,49.20
2018-09-22T03:07:33.583Z,49.20
2018-09-22T03:08:37.087Z,49.30
2018-09-22T03:09:40.238Z,49.20
2018-09-22T03:10:43.423Z,49.20
2018-09-22T03:11:46.585Z,49.30
2018-09-22T03:12:49.797Z,49.30
2018-09-22T03:13:53.190Z,49.30
2018-09-22T03:14:56.284Z,49.30
2018-09-22T03:15:59.449Z,49.20
2018-09-22T03:17:02.562Z,49.20
2018-09-22T03:18:05.703Z,49.80
2018-09-22T03:19:08.747Z,49.20
2018-09-22T03:20:12.084Z,49.30
2018-09-22T03:21:15.622Z,49.30
2018-09-22T03:22:18.959Z,49.30
2018-09-22T03:23:22.337Z,49.30
2018-09-22T03:24:25.464Z,49.30
2018-09-22T03:25:30.022Z,49.20
2018-09-22T03:26:34.031Z,49.30
2018-09-22T03:27:37.101Z,49.30
2018-09-22T03:28:40.125Z,49.30
2018-09-22T03:29:43.295Z,49.30
2018-09-22T03:30:46.408Z,49.30
2018-09-22T03:31:49.593Z,49.30
2018-09-22T03:32:52.564Z,49.30
2018-09-22T03:33:55.795Z,49.30
2018-09-22T03:34:58.893Z,49.20
2018-09-22T03:36:02.052Z,49.20
2018-09-22T03:37:05.281Z,49.20
2018-09-22T03:38:08.499Z,49.30
2018-09-22T03:39:11.949Z,49.30
2018-09-22T03:40:15.057Z,49.30
2018-09-22T03:41:18.168Z,49.20
2018-09-22T03:42:21.430Z,49.20
2018-09-22T03:43:24.506Z,49.20
2018-09-22T03:44:27.761Z,49.20
2018-09-22T03:45:30.840Z,49.20
2018-09-22T03:46:33.915Z,49.20
2018-09-22T03:47:37.117Z,49.10
2018-09-22T03:48:40.286Z,49.20
2018-09-22T03:49:43.332Z,49.10
2018-09-22T03:50:46.605Z,49.00
2018-09-22T03:51:49.817Z,49.00
2018-09-22T03:52:52.814Z,49.00
2018-09-22T03:53:55.906Z,49.00
2018-09-22T03:54:58.948Z,49.00
2018-09-22T03:56:02.156Z,49.00
2018-09-22T03:57:05.463Z,49.00
2018-09-22T03:58:08.653Z,48.90
2018-09-22T03:59:11.885Z,49.00
2018-09-22T04:00:14.969Z,49.00
2018-09-22T04:01:18.028Z,49.00
2018-09-22T04:02:21.231Z,49.00
2018-09-22T04:03:24.348Z,49.00
2018-09-22T04:04:27.546Z,49.00
2018-09-22T04:05:30.909Z,49.00
2018-09-22T04:06:34.456Z,48.90
2018-09-22T04:07:37.677Z,48.90
2018-09-22T04:08:40.744Z,49.00
2018-09-22T04:09:43.994Z,48.90
2018-09-22T04:10:47.298Z,48.90
2018-09-22T04:11:51.842Z,48.90
2018-09-22T04:12:55.137Z,48.90
2018-09-22T04:13:58.586Z,48.90
2018-09-22T04:15:02.065Z,48.90
2018-09-22T04:16:05.468Z,48.90
2018-09-22T04:17:08.800Z,48.80
2018-09-22T04:18:11.905Z,48.70
2018-09-22T04:19:15.162Z,48.70
2018-09-22T04:20:18.379Z,48.80
2018-09-22T04:21:21.649Z,48.90
2018-09-22T04:22:24.733Z,48.80
2018-09-22T04:23:27.783Z,48.80
2018-09-22T04:24:30.835Z,48.80
2018-09-22T04:25:34.049Z,48.80
2018-09-22T04:26:37.126Z,48.80
2018-09-22T04:27:40.285Z,48.90
2018-09-22T04:28:43.388Z,48.80
2018-09-22T04:29:46.425Z,48.90
2018-09-22T04:30:49.516Z,48.80
2018-09-22T04:31:52.648Z,48.80
2018-09-22T04:32:55.751Z,48.80
2018-09-22T04:33:59.730Z,48.80
2018-09-22T04:35:02.932Z,48.90
2018-09-22T04:36:06.250Z,48.90
2018-09-22T04:37:09.560Z,48.90
2018-09-22T04:38:12.913Z,48.90
2018-09-22T04:39:16.337Z,48.80
2018-09-22T04:40:19.532Z,48.80
2018-09-22T04:41:22.741Z,48.70
2018-09-22T04:42:26.012Z,48.80
2018-09-22T04:43:29.274Z,48.80
2018-09-22T04:44:32.560Z,48.70
2018-09-22T04:45:36.113Z,48.70
2018-09-22T04:46:39.296Z,48.70
2018-09-22T04:47:42.428Z,48.80
2018-09-22T04:48:45.658Z,48.70
2018-09-22T04:49:48.764Z,48.70
2018-09-22T04:50:51.869Z,48.70
2018-09-22T04:51:54.831Z,48.50
2018-09-22T04:52:57.916Z,48.40
2018-09-22T04:54:00.980Z,48.40
2018-09-22T04:55:04.274Z,48.50
2018-09-22T04:56:07.382Z,48.70
2018-09-22T04:57:10.540Z,48.70
2018-09-22T04:58:13.596Z,49.30
2018-09-22T04:59:16.646Z,48.60
2018-09-22T05:00:19.844Z,48.60
2018-09-22T05:01:22.928Z,48.60
2018-09-22T05:02:26.131Z,48.50
2018-09-22T05:03:29.609Z,48.60
2018-09-22T05:04:32.831Z,48.70
2018-09-22T05:05:36.123Z,48.70
2018-09-22T05:06:39.338Z,48.50
2018-09-22T05:07:42.537Z,48.60
2018-09-22T05:08:45.699Z,48.50
2018-09-22T05:09:49.071Z,48.50
2018-09-22T05:10:52.243Z,48.40
2018-09-22T05:11:55.395Z,48.40
2018-09-22T05:12:58.565Z,48.40
2018-09-22T05:14:01.791Z,48.50
2018-09-22T05:15:04.965Z,48.50
2018-09-22T05:16:08.530Z,48.50
2018-09-22T05:17:11.539Z,48.40
2018-09-22T05:18:14.573Z,48.40
2018-09-22T05:19:17.712Z,48.40
2018-09-22T05:20:20.880Z,48.40
2018-09-22T05:21:24.211Z,48.40
2018-09-22T05:22:27.304Z,48.20
2018-09-22T05:23:30.355Z,48.30
2018-09-22T05:24:33.373Z,48.20
2018-09-22T05:25:36.408Z,48.20
2018-09-22T05:26:39.620Z,48.20
2018-09-22T05:27:42.741Z,48.20
2018-09-22T05:28:45.910Z,48.20
2018-09-22T05:29:48.951Z,48.20
2018-09-22T05:30:51.995Z,48.20
2018-09-22T05:31:55.105Z,48.20
2018-09-22T05:32:58.175Z,48.10
2018-09-22T05:34:01.211Z,48.00
2018-09-22T05:35:04.372Z,48.10
2018-09-22T05:36:07.520Z,48.10
2018-09-22T05:37:10.681Z,48.20
2018-09-22T05:38:14.198Z,48.30
2018-09-22T05:39:17.209Z,48.40
2018-09-22T05:40:20.353Z,48.40
2018-09-22T05:41:23.453Z,48.60
2018-09-22T05:42:26.561Z,48.40
2018-09-22T05:43:29.623Z,48.40
2018-09-22T05:44:32.728Z,48.50
2018-09-22T05:45:35.788Z,48.40
2018-09-22T05:46:38.952Z,48.50
2018-09-22T05:47:42.265Z,48.50
2018-09-22T05:48:45.365Z,48.10
2018-09-22T05:49:48.452Z,48.40
2018-09-22T05:50:51.604Z,48.30
2018-09-22T05:51:54.768Z,48.30
2018-09-22T05:52:58.110Z,48.40
2018-09-22T05:54:01.297Z,48.40
2018-09-22T05:55:04.352Z,48.50
2018-09-22T05:56:07.657Z,48.50
2018-09-22T05:57:10.792Z,48.50
2018-09-22T05:58:14.213Z,48.50
2018-09-22T05:59:17.622Z,48.50
2018-09-22T06:00:20.703Z,48.40
2018-09-22T06:01:23.937Z,48.50
2018-09-22T06:02:26.960Z,48.50
2018-09-22T06:03:30.241Z,48.60
2018-09-22T06:04:33.356Z,48.50
2018-09-22T06:05:36.660Z,48.60
2018-09-22T06:06:39.788Z,48.60
2018-09-22T06:07:42.945Z,48.50
2018-09-22T06:08:46.292Z,48.50
2018-09-22T06:09:49.460Z,48.50
2018-09-22T06:10:52.579Z,48.60
2018-09-22T06:11:55.645Z,48.50
2018-09-22T06:12:59.099Z,48.50
2018-09-22T06:14:02.948Z,48.50
2018-09-22T06:15:06.851Z,48.40
2018-09-22T06:16:10.009Z,48.50
2018-09-22T06:17:13.304Z,48.50
2018-09-22T06:18:16.475Z,48.50
2018-09-22T06:19:19.677Z,48.50
2018-09-22T06:20:22.764Z,48.40
2018-09-22T06:21:25.909Z,48.40
2018-09-22T06:22:29.072Z,48.40
2018-09-22T06:23:32.202Z,48.40
2018-09-22T06:24:35.389Z,48.40
2018-09-22T06:25:38.601Z,48.40
2018-09-22T06:26:41.772Z,48.40
2018-09-22T06:27:44.929Z,48.50
2018-09-22T06:28:48.250Z,48.50
2018-09-22T06:29:51.463Z,48.50
2018-09-22T06:30:54.633Z,48.50
2018-09-22T06:31:57.704Z,48.50
2018-09-22T06:33:00.757Z,48.50
2018-09-22T06:34:04.225Z,48.50
2018-09-22T06:35:07.308Z,48.50
2018-09-22T06:36:10.434Z,48.50
2018-09-22T06:37:13.532Z,48.40
2018-09-22T06:38:16.691Z,48.40
2018-09-22T06:39:19.655Z,48.40
2018-09-22T06:40:22.628Z,48.40
2018-09-22T06:41:25.631Z,48.40
2018-09-22T06:42:28.656Z,48.50
2018-09-22T06:43:31.632Z,48.50
2018-09-22T06:44:34.629Z,48.40
2018-09-22T06:45:37.697Z,48.40
2018-09-22T06:46:40.676Z,48.40
2018-09-22T06:47:43.745Z,48.50
2018-09-22T06:48:46.716Z,48.40
2018-09-22T06:49:50.150Z,48.50
2018-09-22T06:50:53.161Z,48.40
2018-09-22T06:51:56.177Z,48.40
2018-09-22T06:52:59.177Z,48.40
2018-09-22T06:54:02.149Z,48.40
2018-09-22T06:55:05.113Z,48.40
2018-09-22T06:56:08.100Z,48.40
2018-09-22T06:57:11.051Z,48.40
2018-09-22T06:58:14.101Z,47.30
2018-09-22T06:59:17.095Z,46.70
2018-09-22T07:00:20.063Z,46.50
2018-09-22T07:01:23.060Z,46.30
2018-09-22T07:02:26.028Z,45.80
2018-09-22T07:03:28.992Z,45.40
2018-09-22T07:04:31.969Z,45.00
2018-09-22T07:05:34.935Z,44.80
2018-09-22T07:06:37.979Z,44.70
2018-09-22T07:07:40.976Z,44.70
2018-09-22T07:08:43.964Z,44.70
2018-09-22T07:09:46.952Z,44.80
2018-09-22T07:10:50.252Z,44.50
2018-09-22T07:11:54.169Z,44.50
2018-09-22T07:12:57.197Z,44.30
2018-09-22T07:14:00.169Z,44.40
2018-09-22T07:15:03.163Z,44.40
2018-09-22T07:16:06.169Z,44.20
2018-09-22T07:17:09.160Z,44.30
2018-09-22T07:18:12.208Z,44.20
2018-09-22T07:19:15.197Z,43.70
2018-09-22T07:20:18.188Z,43.50
2018-09-22T07:21:26.529Z,43.70
2018-09-22T07:22:34.876Z,43.70
2018-09-22T07:23:37.839Z,43.50
2018-09-22T07:24:40.860Z,43.60
2018-09-22T07:25:43.832Z,43.50
2018-09-22T07:26:46.824Z,43.40
2018-09-22T07:27:49.851Z,44.20
2018-09-22T07:28:52.831Z,43.60
2018-09-22T07:29:55.824Z,43.60
2018-09-22T07:30:59.208Z,43.50
2018-09-22T07:32:02.020Z,43.40
2018-09-22T07:33:04.971Z,43.40
2018-09-22T07:34:07.940Z,43.50
2018-09-22T07:35:10.887Z,43.40
2018-09-22T07:36:13.860Z,43.60
2018-09-22T07:37:16.823Z,43.60
2018-09-22T07:38:19.819Z,43.60
2018-09-22T07:39:22.824Z,43.60
2018-09-22T07:40:25.777Z,43.40
2018-09-22T07:41:28.748Z,43.20
2018-09-22T07:42:31.712Z,43.20
2018-09-22T07:43:34.744Z,43.40
2018-09-22T07:44:37.771Z,43.40
2018-09-22T07:45:40.769Z,43.40
2018-09-22T07:46:43.752Z,43.40
2018-09-22T07:47:46.712Z,43.40
2018-09-22T07:48:49.728Z,43.30
2018-09-22T07:49:52.691Z,43.40
2018-09-22T07:50:55.665Z,43.50
2018-09-22T07:51:58.641Z,43.60
2018-09-22T07:53:01.601Z,43.40
2018-09-22T07:54:04.576Z,43.40
2018-09-22T07:55:07.550Z,43.40
2018-09-22T07:56:10.513Z,43.40
2018-09-22T07:57:13.510Z,43.60
2018-09-22T07:58:16.464Z,43.50
2018-09-22T07:59:19.445Z,43.30
2018-09-22T08:00:22.481Z,43.40
2018-09-22T08:01:25.836Z,43.40
2018-09-22T08:02:28.839Z,43.30
2018-09-22T08:03:31.975Z,43.40
2018-09-22T08:04:35.196Z,43.50
2018-09-22T08:05:38.200Z,43.60
2018-09-22T08:06:41.173Z,43.90
2018-09-22T08:07:44.151Z,43.40
2018-09-22T08:08:47.149Z,42.80
2018-09-22T08:09:50.146Z,42.20
2018-09-22T08:10:53.292Z,41.90
2018-09-22T08:11:57.952Z,42.50
2018-09-22T08:13:01.106Z,42.80
2018-09-22T08:14:04.084Z,43.10
2018-09-22T08:15:07.714Z,43.30
2018-09-22T08:16:10.794Z,43.50
2018-09-22T08:17:13.763Z,43.70
2018-09-22T08:18:16.765Z,43.90
2018-09-22T08:19:19.759Z,44.10
2018-09-22T08:20:22.745Z,44.00
2018-09-22T08:21:25.732Z,44.00
2018-09-22T08:22:28.710Z,43.90
2018-09-22T08:23:31.731Z,43.90
2018-09-22T08:24:34.716Z,43.80
2018-09-22T08:25:37.684Z,44.00
2018-09-22T08:26:40.696Z,44.30
2018-09-22T08:27:43.661Z,44.40
2018-09-22T08:28:46.656Z,44.40
2018-09-22T08:29:49.628Z,44.60
2018-09-22T08:30:52.611Z,44.60
2018-09-22T08:31:55.588Z,44.60
2018-09-22T08:32:58.574Z,44.70
2018-09-22T08:34:01.603Z,44.90
2018-09-22T08:35:04.616Z,45.00
2018-09-22T08:36:07.754Z,45.00
2018-09-22T08:37:10.709Z,44.90
2018-09-22T08:38:13.551Z,44.70
2018-09-22T08:39:16.532Z,44.80
2018-09-22T08:40:19.512Z,45.00
2018-09-22T08:41:22.488Z,45.00
2018-09-22T08:42:25.456Z,44.80
2018-09-22T08:43:28.436Z,44.60
2018-09-22T08:44:31.427Z,44.50
2018-09-22T08:45:34.393Z,44.50
2018-09-22T08:46:37.657Z,44.40
2018-09-22T08:47:40.639Z,44.30
2018-09-22T08:48:43.608Z,44.30
2018-09-22T08:49:46.653Z,44.00
2018-09-22T08:50:49.604Z,43.80
2018-09-22T08:51:52.560Z,43.60
2018-09-22T08:52:55.555Z,43.50
2018-09-22T08:53:58.547Z,43.30
2018-09-22T08:55:01.517Z,43.20
2018-09-22T08:56:04.492Z,43.20
2018-09-22T08:57:07.721Z,43.00
2018-09-22T08:58:10.698Z,42.90
2018-09-22T08:59:13.684Z,42.90
2018-09-22T09:00:16.672Z,42.70
2018-09-22T09:01:42.020Z,42.60
2018-09-22T09:03:05.841Z,42.50
2018-09-22T09:04:28.038Z,42.40
2018-09-22T09:05:56.184Z,42.20
2018-09-22T09:07:21.555Z,42.00
2018-09-22T09:08:46.624Z,41.90
2018-09-22T09:10:11.297Z,42.10
2018-09-22T09:11:35.300Z,42.30
2018-09-22T09:14:18.363Z,42.50
2018-09-22T09:15:21.348Z,41.60
2018-09-22T09:16:24.324Z,41.70
2018-09-22T09:17:39.204Z,42.00
2018-09-22T09:18:47.855Z,42.30
2018-09-22T09:20:03.232Z,42.50
2018-09-22T09:21:26.955Z,42.70
2018-09-22T09:22:44.189Z,42.80
2018-09-22T09:24:14.016Z,42.80
2018-09-22T09:25:19.831Z,42.90
2018-09-22T09:26:25.413Z,42.90
2018-09-22T09:27:28.837Z,43.00
2018-09-22T09:28:32.064Z,42.90
2018-09-22T09:29:35.375Z,43.00
2018-09-22T09:30:38.808Z,43.00
2018-09-22T09:31:43.805Z,43.00
2018-09-22T09:32:47.082Z,43.10
2018-09-22T09:33:50.895Z,43.10
2018-09-22T09:34:54.176Z,43.10
2018-09-22T09:36:03.472Z,43.30
2018-09-22T09:37:06.711Z,43.30
2018-09-22T09:38:31.874Z,43.30
2018-09-22T09:39:49.228Z,43.20
2018-09-22T09:41:17.593Z,43.20
2018-09-22T09:42:21.790Z,43.10
2018-09-22T09:43:28.235Z,43.70
2018-09-22T09:44:31.864Z,43.20
2018-09-22T09:45:35.316Z,43.20
2018-09-22T09:46:38.779Z,43.20
2018-09-22T09:47:42.277Z,43.20
2018-09-22T09:48:46.636Z,43.20
2018-09-22T09:49:50.261Z,43.20
2018-09-22T09:50:53.622Z,43.00
2018-09-22T09:52:03.632Z,43.10
2018-09-22T09:53:07.129Z,43.20
2018-09-22T09:54:12.406Z,43.40
2018-09-22T09:55:20.864Z,43.40
2018-09-22T09:56:32.220Z,43.40
2018-09-22T09:57:36.142Z,43.40
2018-09-22T09:58:39.285Z,43.40
2018-09-22T09:59:42.580Z,43.40
2018-09-22T10:00:46.679Z,43.40
2018-09-22T10:01:51.117Z,43.40
2018-09-22T10:02:54.265Z,43.40
2018-09-22T10:03:57.270Z,43.50
2018-09-22T10:05:00.254Z,40.90
2018-09-22T10:06:03.221Z,39.40
2018-09-22T10:07:06.359Z,39.50
2018-09-22T10:08:09.341Z,39.70
2018-09-22T10:09:12.333Z,39.80
2018-09-22T10:10:15.313Z,40.50
2018-09-22T10:11:18.371Z,40.50
2018-09-22T10:12:21.417Z,39.80
2018-09-22T10:13:24.376Z,39.30
2018-09-22T10:14:27.339Z,39.30
2018-09-22T10:15:30.998Z,39.10
2018-09-22T10:16:33.991Z,39.20
2018-09-22T10:17:36.951Z,39.10
2018-09-22T10:18:39.952Z,39.30
2018-09-22T10:19:42.940Z,39.20
2018-09-22T10:20:45.915Z,39.50
2018-09-22T10:21:48.876Z,39.50
2018-09-22T10:22:51.884Z,39.60
2018-09-22T10:23:54.839Z,39.50
2018-09-22T10:24:58.139Z,39.50
2018-09-22T10:26:01.194Z,39.70
2018-09-22T10:27:04.160Z,40.00
2018-09-22T10:28:07.159Z,40.50
2018-09-22T10:29:10.121Z,40.40
2018-09-22T10:30:13.091Z,39.00
2018-09-22T10:31:16.071Z,39.60
2018-09-22T10:32:19.045Z,38.60
2018-09-22T10:33:22.017Z,38.10
2018-09-22T10:34:24.996Z,38.20
2018-09-22T10:35:27.963Z,38.30
2018-09-22T10:36:31.057Z,38.40
2018-09-22T10:37:34.275Z,38.60
2018-09-22T10:38:37.276Z,39.10
2018-09-22T10:39:40.280Z,39.60
2018-09-22T10:40:43.258Z,40.00
2018-09-22T10:41:46.241Z,40.30
2018-09-22T10:42:49.215Z,40.60
2018-09-22T10:43:52.187Z,40.60
2018-09-22T10:44:55.178Z,40.70
2018-09-22T10:45:58.159Z,40.80
2018-09-22T10:47:01.140Z,41.00
2018-09-22T10:48:04.116Z,41.00
2018-09-22T10:49:07.089Z,41.10
2018-09-22T10:50:10.085Z,41.10
2018-09-22T10:51:13.052Z,41.10
2018-09-22T10:52:16.007Z,41.20
2018-09-22T10:53:18.981Z,41.30
2018-09-22T10:54:22.279Z,41.30
2018-09-22T10:55:25.285Z,41.30
2018-09-22T10:56:28.247Z,41.30
2018-09-22T10:57:31.220Z,41.40
2018-09-22T10:58:34.217Z,41.40
2018-09-22T10:59:37.192Z,41.40
2018-09-22T11:00:40.162Z,41.50
2018-09-22T11:01:43.121Z,41.60
2018-09-22T11:02:46.086Z,41.60
2018-09-22T11:03:49.047Z,41.60
2018-09-22T11:04:52.037Z,41.70
2018-09-22T11:05:55.003Z,41.70
2018-09-22T11:06:57.980Z,41.70
2018-09-22T11:08:01.212Z,41.80
2018-09-22T11:09:06.195Z,41.80
2018-09-22T11:10:09.268Z,41.80
2018-09-22T11:11:12.157Z,41.80
2018-09-22T11:12:15.129Z,41.80
2018-09-22T11:13:18.114Z,41.90
2018-09-22T11:14:21.076Z,42.00
2018-09-22T11:15:24.052Z,41.50
2018-09-22T11:16:27.059Z,42.00
2018-09-22T11:17:30.773Z,42.10
2018-09-22T11:18:33.984Z,42.20
2018-09-22T11:19:36.955Z,42.20
2018-09-22T11:20:39.944Z,42.30
2018-09-22T11:21:42.931Z,42.30
2018-09-22T11:22:45.896Z,42.40
2018-09-22T11:23:53.553Z,42.30
2018-09-22T11:24:56.526Z,42.40
2018-09-22T11:25:59.492Z,42.40
2018-09-22T11:27:02.601Z,42.50
2018-09-22T11:28:05.504Z,42.60
2018-09-22T11:29:08.478Z,42.60
2018-09-22T11:30:11.484Z,42.60
2018-09-22T11:31:14.476Z,42.60
2018-09-22T11:32:18.172Z,42.60
2018-09-22T11:33:21.173Z,42.60
2018-09-22T11:34:24.142Z,42.70
2018-09-22T11:35:27.108Z,42.60
2018-09-22T11:36:30.111Z,42.70
2018-09-22T11:37:33.115Z,42.70
2018-09-22T11:38:36.432Z,42.70
2018-09-22T11:39:39.409Z,42.70
2018-09-22T11:40:42.380Z,42.80
2018-09-22T11:41:46.354Z,42.80
2018-09-22T11:42:49.321Z,42.80
2018-09-22T11:43:52.284Z,42.70
2018-09-22T11:44:55.289Z,42.80
2018-09-22T11:45:58.248Z,42.70
2018-09-22T11:47:01.220Z,42.70
2018-09-22T11:48:04.201Z,42.70
2018-09-22T11:49:07.156Z,42.70
2018-09-22T11:50:10.121Z,42.80
2018-09-22T11:51:13.156Z,42.80
2018-09-22T11:52:16.146Z,42.80
2018-09-22T11:53:19.126Z,42.80
2018-09-22T11:54:22.132Z,43.00
2018-09-22T11:55:25.100Z,43.10
2018-09-22T11:56:28.103Z,43.00
2018-09-22T11:57:31.056Z,41.30
2018-09-22T11:58:34.025Z,40.70
2018-09-22T11:59:37.016Z,41.40
2018-09-22T12:00:40.035Z,42.00
2018-09-22T12:01:43.013Z,42.40
2018-09-22T12:02:45.991Z,42.50
2018-09-22T12:03:48.969Z,42.70
2018-09-22T12:04:51.945Z,42.70
2018-09-22T12:05:55.019Z,42.80
2018-09-22T12:06:57.968Z,42.80
2018-09-22T12:08:00.933Z,42.90
2018-09-22T12:09:05.836Z,42.90
2018-09-22T12:10:08.842Z,42.90
2018-09-22T12:11:11.834Z,42.90
2018-09-22T12:12:14.813Z,43.00
2018-09-22T12:13:17.912Z,43.00
2018-09-22T12:14:20.912Z,43.00
2018-09-22T12:15:23.871Z,42.90
2018-09-22T12:16:26.848Z,42.90
2018-09-22T12:17:29.860Z,43.00
2018-09-22T12:18:32.845Z,42.80
2018-09-22T12:19:35.844Z,42.80
2018-09-22T12:20:38.830Z,42.90
2018-09-22T12:21:41.832Z,42.90
2018-09-22T12:22:44.799Z,42.80
2018-09-22T12:23:47.773Z,42.90
2018-09-22T12:24:50.740Z,43.00
2018-09-22T12:25:53.739Z,43.00
2018-09-22T12:26:56.692Z,43.10
2018-09-22T12:27:59.676Z,43.10
2018-09-22T12:29:02.642Z,43.00
2018-09-22T12:30:05.948Z,43.00
2018-09-22T12:31:08.920Z,43.10
2018-09-22T12:32:11.879Z,43.10
2018-09-22T12:33:14.852Z,43.20
2018-09-22T12:34:17.816Z,43.20
2018-09-22T12:35:20.896Z,43.20
2018-09-22T12:36:23.877Z,43.20
2018-09-22T12:37:26.849Z,43.20
2018-09-22T12:38:29.833Z,43.20
2018-09-22T12:39:32.796Z,43.80
2018-09-22T12:40:35.780Z,43.20
2018-09-22T12:41:39.171Z,43.20
2018-09-22T12:42:42.161Z,43.20
2018-09-22T12:43:45.160Z,43.20
2018-09-22T12:44:48.152Z,43.20
2018-09-22T12:45:51.116Z,43.20
2018-09-22T12:46:54.088Z,43.20
2018-09-22T12:47:57.053Z,43.10
2018-09-22T12:49:00.023Z,43.10
2018-09-22T12:50:02.994Z,43.10
2018-09-22T12:51:05.979Z,43.10
2018-09-22T12:52:08.972Z,43.00
2018-09-22T12:53:11.957Z,43.00
2018-09-22T12:54:14.932Z,43.00
2018-09-22T12:55:17.934Z,42.90
2018-09-22T12:56:20.896Z,42.60
2018-09-22T12:57:23.869Z,42.30
2018-09-22T12:58:26.833Z,42.40
2018-09-22T12:59:29.807Z,42.60
2018-09-22T13:00:32.792Z,42.80
2018-09-22T13:01:35.755Z,42.90
2018-09-22T13:02:38.736Z,42.90
2018-09-22T13:03:41.772Z,43.00
2018-09-22T13:04:44.724Z,43.00
2018-09-22T13:05:47.890Z,43.00
2018-09-22T13:06:50.901Z,43.00
2018-09-22T13:07:53.867Z,43.00
2018-09-22T13:08:56.876Z,43.00
2018-09-22T13:09:59.844Z,42.50
2018-09-22T13:11:02.803Z,43.10
2018-09-22T13:12:06.025Z,43.00
2018-09-22T13:13:09.027Z,43.00
2018-09-22T13:14:11.992Z,43.10
2018-09-22T13:15:14.972Z,43.10
2018-09-22T13:16:17.960Z,43.10
2018-09-22T13:17:20.981Z,43.10
2018-09-22T13:18:23.958Z,43.10
2018-09-22T13:19:26.940Z,43.10
2018-09-22T13:20:29.944Z,43.20
2018-09-22T13:21:32.916Z,43.10
2018-09-22T13:22:36.000Z,43.20
2018-09-22T13:23:39.018Z,43.10
2018-09-22T13:24:41.991Z,43.20
2018-09-22T13:25:45.005Z,43.10
2018-09-22T13:26:48.027Z,43.10
2018-09-22T13:27:50.927Z,43.10
2018-09-22T13:28:53.909Z,43.10
2018-09-22T13:29:56.877Z,43.10
2018-09-22T13:30:59.859Z,43.10
2018-09-22T13:32:02.846Z,43.00
2018-09-22T13:33:05.853Z,43.00
2018-09-22T13:34:08.800Z,42.90
2018-09-22T13:35:11.773Z,42.90
2018-09-22T13:36:14.764Z,42.80
2018-09-22T13:37:17.813Z,42.80
2018-09-22T13:38:20.732Z,42.80
2018-09-22T13:39:23.727Z,42.80
2018-09-22T13:40:26.711Z,42.80
2018-09-22T13:41:29.727Z,42.90